Time;durP1;ratioP1;P1;durP2;ratioP2;P2;SDS_P1;SDS_P2;PMS_P1;PMS_P2;Temp;Humidity;BMP_temperature;BMP_pressure;BME280_temperature;BME280_humidity;BME280_pressure;Samples;Min_cycle;Max_cycle;Signal;HPM_P1;HPM_P2
2022/07/21 00:01:18;;;;;;;;;;;24.30;66.60;;;;;;6252904;22;19918;-90
2022/07/21 00:03:46;;;;;;;;;;;24.30;66.90;;;;;;6278911;22;19903;-90
2022/07/21 00:06:12;;;;;;;;;;;24.30;67.00;;;;;;6279133;22;20248;-90
2022/07/21 00:08:37;;;;;;;;;;;24.30;67.10;;;;;;6279447;22;19903;-91
2022/07/21 00:11:03;;;;;;;;;;;24.30;67.20;;;;;;6250953;22;19922;-91
2022/07/21 00:13:30;;;;;;;;;;;24.30;67.20;;;;;;6251714;22;19904;-90
2022/07/21 00:15:56;;;;;;;;;;;24.30;67.10;;;;;;6251095;22;20331;-90
2022/07/21 00:18:22;;;;;;;;;;;24.30;67.10;;;;;;6251530;22;19942;-89
2022/07/21 00:20:48;;;;;;;;;;;24.30;67.20;;;;;;6251764;22;19911;-89
2022/07/21 00:23:13;;;;;;;;;;;24.30;67.40;;;;;;6277477;22;19914;-88
2022/07/21 00:25:39;;;;;;;;;;;24.30;67.60;;;;;;6278050;22;20196;-89
2022/07/21 00:28:05;;;;;;;;;;;24.40;67.60;;;;;;6249727;22;19911;-89
2022/07/21 00:30:30;;;;;;;;;;;24.50;67.70;;;;;;6251143;22;19927;-89
2022/07/21 00:32:56;;;;;;;;;;;24.50;67.60;;;;;;6278347;22;20231;-88
2022/07/21 00:35:21;;;;;;;;;;;24.60;67.70;;;;;;6249650;22;19911;-88
2022/07/21 00:37:47;;;;;;;;;;;24.70;67.60;;;;;;6249858;22;19907;-88
2022/07/21 00:40:13;;;;;;;;;;;24.70;67.50;;;;;;6250076;22;19931;-89
2022/07/21 00:42:39;;;;;;;;;;;24.80;67.20;;;;;;6250898;22;19915;-89
2022/07/21 00:45:06;;;;;;;;;;;24.80;67.10;;;;;;6250823;22;19904;-88
2022/07/21 00:47:31;;;;;;;;;;;24.80;67.10;;;;;;6251728;22;19911;-88
2022/07/21 00:49:57;;;;;;;;;;;24.80;67.00;;;;;;6279116;22;20236;-90
2022/07/21 00:52:23;;;;;;;;;;;24.70;66.90;;;;;;6251932;22;19961;-89
2022/07/21 00:54:49;;;;;;;;;;;24.70;67.10;;;;;;6278355;22;19962;-89
2022/07/21 00:57:15;;;;;;;;;;;24.60;67.40;;;;;;6251187;22;19915;-89
2022/07/21 00:59:41;;;;;;;;;;;24.60;67.70;;;;;;6278369;22;20316;-89
2022/07/21 01:02:07;;;;;;;;;;;24.70;67.80;;;;;;6278482;22;20308;-89
2022/07/21 01:04:33;;;;;;;;;;;24.70;68.00;;;;;;6276837;22;19903;-89
2022/07/21 01:07:00;;;;;;;;;;;24.70;68.00;;;;;;6249707;22;19915;-89
2022/07/21 01:09:26;;;;;;;;;;;24.70;68.00;;;;;;6250281;22;19903;-90
2022/07/21 01:11:51;;;;;;;;;;;24.70;67.80;;;;;;6249455;22;20217;-90
2022/07/21 01:14:17;;;;;;;;;;;24.70;67.80;;;;;;6250113;22;19911;-90
2022/07/21 01:16:45;;;;;;;;;;;24.70;67.90;;;;;;6250109;22;19910;-90
2022/07/21 01:19:11;;;;;;;;;;;24.60;67.90;;;;;;6249739;22;19993;-90
2022/07/21 01:21:38;;;;;;;;;;;24.60;68.00;;;;;;6277370;22;19957;-90
2022/07/21 01:24:04;;;;;;;;;;;24.60;68.00;;;;;;6251556;22;20290;-90
2022/07/21 01:26:30;;;;;;;;;;;24.60;68.10;;;;;;6279686;22;20005;-90
2022/07/21 01:28:56;;;;;;;;;;;24.70;68.00;;;;;;6279459;22;19911;-90
2022/07/21 01:31:22;;;;;;;;;;;24.70;68.10;;;;;;6279424;22;20270;-90
2022/07/21 01:33:48;;;;;;;;;;;24.70;68.20;;;;;;6252311;22;19931;-91
2022/07/21 01:36:13;;;;;;;;;;;24.70;68.10;;;;;;6278614;22;20308;-90
2022/07/21 01:41:29;;;;;;;;;;;24.70;68.30;;;;;;6279997;22;19926;-90
2022/07/21 01:43:59;;;;;;;;;;;24.70;68.40;;;;;;6279067;22;20295;-91
2022/07/21 01:46:25;;;;;;;;;;;24.80;68.50;;;;;;6251543;22;20374;-91
2022/07/21 01:48:51;;;;;;;;;;;24.80;68.40;;;;;;6279253;22;19945;-90
2022/07/21 01:51:16;;;;;;;;;;;24.80;68.30;;;;;;6278864;22;19942;-91
2022/07/21 01:53:42;;;;;;;;;;;24.70;68.20;;;;;;6252569;22;20312;-90
2022/07/21 01:56:08;;;;;;;;;;;24.70;68.10;;;;;;6252297;22;20289;-90
2022/07/21 01:58:33;;;;;;;;;;;24.70;68.30;;;;;;6278862;22;19912;-90
2022/07/21 02:00:59;;;;;;;;;;;24.80;68.30;;;;;;6277907;22;19907;-90
2022/07/21 02:03:24;;;;;;;;;;;24.80;68.40;;;;;;6277661;22;19969;-91
2022/07/21 02:05:50;;;;;;;;;;;24.80;68.40;;;;;;6250355;22;20239;-90
2022/07/21 02:08:15;;;;;;;;;;;24.80;68.20;;;;;;6251180;22;19918;-90
2022/07/21 02:10:41;;;;;;;;;;;24.80;68.20;;;;;;6278844;22;20049;-90
2022/07/21 02:13:06;;;;;;;;;;;24.80;68.20;;;;;;6251498;22;20304;-90
2022/07/21 02:15:32;;;;;;;;;;;24.80;68.20;;;;;;6250406;22;19903;-90
2022/07/21 02:17:58;;;;;;;;;;;24.80;68.30;;;;;;6251189;22;19911;-91
2022/07/21 02:20:24;;;;;;;;;;;24.70;68.40;;;;;;6252030;22;19911;-90
2022/07/21 02:22:49;;;;;;;;;;;24.70;68.60;;;;;;6278856;22;19915;-90
2022/07/21 02:25:15;;;;;;;;;;;24.80;68.60;;;;;;6250269;22;19908;-89
2022/07/21 02:27:43;;;;;;;;;;;24.80;68.40;;;;;;6248984;22;19912;-89
2022/07/21 02:30:09;;;;;;;;;;;24.80;68.40;;;;;;6250598;22;19907;-90
2022/07/21 02:32:35;;;;;;;;;;;24.70;68.40;;;;;;6277729;22;19904;-90
2022/07/21 02:35:00;;;;;;;;;;;24.80;68.40;;;;;;6277853;22;19907;-89
2022/07/21 02:37:27;;;;;;;;;;;24.80;68.50;;;;;;6250006;22;19907;-89
2022/07/21 02:39:52;;;;;;;;;;;24.80;68.50;;;;;;6277326;22;19986;-89
2022/07/21 02:42:17;;;;;;;;;;;24.90;68.50;;;;;;6250199;22;20304;-89
2022/07/21 02:44:43;;;;;;;;;;;24.90;68.40;;;;;;6276842;22;19907;-89
2022/07/21 02:47:08;;;;;;;;;;;24.90;68.40;;;;;;6224408;22;20263;-89
2022/07/21 02:49:34;;;;;;;;;;;24.90;68.30;;;;;;6250876;22;20296;-88
2022/07/21 02:51:59;;;;;;;;;;;25.00;68.30;;;;;;6277228;22;19907;-89
2022/07/21 02:54:25;;;;;;;;;;;24.90;68.20;;;;;;6250090;22;19914;-89
2022/07/21 02:56:50;;;;;;;;;;;25.00;68.20;;;;;;6249855;22;19915;-88
2022/07/21 02:59:15;;;;;;;;;;;25.00;68.20;;;;;;6250042;22;19907;-89
2022/07/21 03:01:41;;;;;;;;;;;25.00;68.10;;;;;;6277385;22;19961;-88
2022/07/21 03:04:06;;;;;;;;;;;25.00;68.20;;;;;;6249576;22;19911;-88
2022/07/21 03:06:32;;;;;;;;;;;25.10;68.20;;;;;;6248948;22;19937;-89
2022/07/21 03:08:57;;;;;;;;;;;25.20;68.20;;;;;;6277478;22;19914;-88
2022/07/21 03:11:23;;;;;;;;;;;25.20;68.20;;;;;;6277147;22;19911;-88
2022/07/21 03:13:48;;;;;;;;;;;25.30;68.20;;;;;;6249856;22;19912;-88
2022/07/21 03:16:14;;;;;;;;;;;25.30;68.10;;;;;;6276379;22;19957;-89
2022/07/21 03:18:41;;;;;;;;;;;25.40;68.10;;;;;;6276997;22;19947;-89
2022/07/21 03:21:06;;;;;;;;;;;25.40;68.00;;;;;;6250902;22;19911;-88
2022/07/21 03:23:32;;;;;;;;;;;25.50;68.00;;;;;;6250140;22;20024;-89
2022/07/21 03:25:57;;;;;;;;;;;25.50;67.90;;;;;;6276762;22;19903;-89
2022/07/21 03:28:23;;;;;;;;;;;25.50;67.90;;;;;;6250443;22;19915;-88
2022/07/21 03:30:48;;;;;;;;;;;25.60;67.80;;;;;;6277648;22;20388;-89
2022/07/21 03:33:14;;;;;;;;;;;25.60;67.70;;;;;;6277864;22;20336;-89
2022/07/21 03:35:39;;;;;;;;;;;25.70;67.70;;;;;;6278086;22;19965;-89
2022/07/21 03:38:05;;;;;;;;;;;25.70;67.70;;;;;;6278615;22;19952;-89
2022/07/21 03:40:32;;;;;;;;;;;25.70;67.60;;;;;;6251699;22;20042;-90
2022/07/21 03:42:59;;;;;;;;;;;25.70;67.50;;;;;;6251262;22;20228;-89
2022/07/21 03:45:25;;;;;;;;;;;25.70;67.60;;;;;;6251772;22;20300;-89
2022/07/21 03:47:50;;;;;;;;;;;25.70;67.60;;;;;;6251265;22;19923;-89
2022/07/21 03:50:19;;;;;;;;;;;25.60;67.30;;;;;;6251462;22;19911;-89
2022/07/21 03:52:44;;;;;;;;;;;25.50;67.30;;;;;;6251146;22;19910;-89
2022/07/21 03:55:12;;;;;;;;;;;25.50;67.50;;;;;;6250996;22;19916;-89
2022/07/21 03:57:39;;;;;;;;;;;25.40;67.40;;;;;;6251977;22;19904;-90
2022/07/21 04:00:06;;;;;;;;;;;25.30;67.40;;;;;;6252896;22;19918;-91
2022/07/21 04:02:31;;;;;;;;;;;25.20;67.30;;;;;;6281044;22;19907;-91
2022/07/21 04:04:56;;;;;;;;;;;25.00;67.40;;;;;;6281368;22;19957;-91
2022/07/21 04:07:22;;;;;;;;;;;24.90;67.30;;;;;;6252725;22;20329;-91
2022/07/21 04:09:47;;;;;;;;;;;24.70;67.20;;;;;;6251468;22;19911;-92
2022/07/21 04:12:13;;;;;;;;;;;24.60;67.20;;;;;;6279885;22;19904;-91
2022/07/21 04:14:38;;;;;;;;;;;24.50;67.20;;;;;;6280557;22;19933;-91
2022/07/21 04:17:04;;;;;;;;;;;24.30;67.20;;;;;;6281133;22;19949;-91
2022/07/21 04:19:29;;;;;;;;;;;24.30;67.30;;;;;;6253865;22;19903;-91
2022/07/21 04:21:55;;;;;;;;;;;24.20;67.50;;;;;;6253744;22;19914;-91
2022/07/21 04:24:20;;;;;;;;;;;24.10;67.50;;;;;;6253299;22;19903;-92
2022/07/21 04:26:45;;;;;;;;;;;24.10;67.70;;;;;;6254620;22;19919;-91
2022/07/21 04:29:11;;;;;;;;;;;24.00;67.90;;;;;;6281674;22;19965;-92
2022/07/21 04:31:36;;;;;;;;;;;24.00;68.00;;;;;;6280773;22;19916;-92
2022/07/21 04:34:02;;;;;;;;;;;23.80;67.90;;;;;;6252217;22;19911;-91
2022/07/21 04:36:27;;;;;;;;;;;23.80;68.00;;;;;;6252578;22;19911;-92
2022/07/21 04:38:53;;;;;;;;;;;23.80;67.90;;;;;;6279636;22;20276;-91
2022/07/21 04:41:19;;;;;;;;;;;23.80;68.00;;;;;;6279817;22;19918;-91
2022/07/21 04:43:44;;;;;;;;;;;23.80;67.90;;;;;;6279608;22;19939;-91
2022/07/21 04:46:10;;;;;;;;;;;23.80;67.90;;;;;;6280000;22;20556;-90
2022/07/21 04:48:35;;;;;;;;;;;23.80;68.00;;;;;;6251917;22;19910;-91
2022/07/21 04:51:01;;;;;;;;;;;23.80;68.10;;;;;;6277596;22;19911;-90
2022/07/21 04:53:26;;;;;;;;;;;23.80;68.10;;;;;;6251941;22;19990;-90
2022/07/21 04:55:52;;;;;;;;;;;23.80;68.20;;;;;;6279769;22;19915;-91
2022/07/21 04:58:20;;;;;;;;;;;23.80;68.30;;;;;;6252627;22;19907;-95
2022/07/21 05:00:46;;;;;;;;;;;23.80;68.30;;;;;;6252424;22;20320;-91
2022/07/21 05:03:13;;;;;;;;;;;23.80;68.20;;;;;;6251616;22;19918;-90
2022/07/21 05:05:38;;;;;;;;;;;23.80;68.50;;;;;;6252377;22;19934;-91
2022/07/21 05:08:04;;;;;;;;;;;24.00;68.60;;;;;;6279300;22;20308;-92
2022/07/21 05:10:30;;;;;;;;;;;24.10;68.70;;;;;;6280098;22;19977;-91
2022/07/21 05:12:55;;;;;;;;;;;24.20;68.90;;;;;;6252775;22;20308;-91
2022/07/21 05:15:21;;;;;;;;;;;24.30;68.90;;;;;;6280022;22;19918;-91
2022/07/21 05:17:46;;;;;;;;;;;24.30;68.90;;;;;;6253459;22;19942;-90
2022/07/21 05:20:12;;;;;;;;;;;24.40;68.70;;;;;;6251915;22;19962;-90
2022/07/21 05:22:38;;;;;;;;;;;24.60;68.70;;;;;;6252579;22;19907;-90
2022/07/21 05:25:09;;;;;;;;;;;24.70;68.40;;;;;;6251967;22;19934;-90
2022/07/21 05:27:35;;;;;;;;;;;24.80;68.30;;;;;;6250921;22;19904;-90
2022/07/21 05:30:00;;;;;;;;;;;24.80;68.10;;;;;;6251151;22;19907;-90
2022/07/21 05:32:26;;;;;;;;;;;24.90;67.70;;;;;;6251694;22;19955;-90
2022/07/21 05:34:51;;;;;;;;;;;25.00;67.90;;;;;;6280156;22;19938;-91
2022/07/21 05:37:17;;;;;;;;;;;25.20;67.90;;;;;;6279243;22;19918;-90
2022/07/21 05:39:42;;;;;;;;;;;25.20;67.70;;;;;;6252133;22;19911;-90
2022/07/21 05:42:07;;;;;;;;;;;25.20;67.60;;;;;;6250877;22;19913;-90
2022/07/21 05:44:33;;;;;;;;;;;25.30;67.70;;;;;;6251510;22;19918;-90
2022/07/21 05:46:58;;;;;;;;;;;25.40;67.60;;;;;;6252167;22;19910;-90
2022/07/21 05:49:24;;;;;;;;;;;25.50;67.70;;;;;;6282237;22;19918;-90
2022/07/21 05:51:49;;;;;;;;;;;25.60;67.70;;;;;;6252918;22;19903;-90
2022/07/21 05:54:15;;;;;;;;;;;25.80;67.50;;;;;;6279300;22;20235;-90
2022/07/21 05:56:40;;;;;;;;;;;25.80;67.50;;;;;;6251524;22;19939;-90
2022/07/21 05:59:06;;;;;;;;;;;25.90;67.50;;;;;;6279469;22;19911;-90
2022/07/21 06:01:31;;;;;;;;;;;26.00;67.40;;;;;;6252313;22;19911;-88
2022/07/21 06:03:57;;;;;;;;;;;26.10;67.40;;;;;;6278858;22;20284;-90
2022/07/21 06:06:23;;;;;;;;;;;26.10;67.40;;;;;;6279169;22;19911;-90
2022/07/21 06:08:48;;;;;;;;;;;26.20;67.50;;;;;;6251662;22;19918;-90
2022/07/21 06:11:15;;;;;;;;;;;26.30;67.50;;;;;;6251725;22;19918;-90
2022/07/21 06:13:41;;;;;;;;;;;26.40;67.20;;;;;;6251513;22;19915;-89
2022/07/21 06:16:07;;;;;;;;;;;26.40;67.20;;;;;;6251416;22;19946;-90
2022/07/21 06:18:33;;;;;;;;;;;26.50;67.40;;;;;;6278734;22;20247;-87
2022/07/21 06:20:58;;;;;;;;;;;26.70;67.40;;;;;;6278260;22;19903;-90
2022/07/21 06:23:24;;;;;;;;;;;26.70;67.00;;;;;;6278101;22;19908;-88
2022/07/21 06:25:50;;;;;;;;;;;26.70;67.00;;;;;;6251142;22;20314;-88
2022/07/21 06:28:16;;;;;;;;;;;26.70;67.10;;;;;;6278236;22;19911;-88
2022/07/21 06:30:42;;;;;;;;;;;26.70;67.00;;;;;;6251133;22;20344;-88
2022/07/21 06:33:07;;;;;;;;;;;26.70;67.20;;;;;;6278576;22;19907;-88
2022/07/21 06:35:33;;;;;;;;;;;26.90;67.40;;;;;;6277912;22;19911;-88
2022/07/21 06:37:58;;;;;;;;;;;27.10;68.00;;;;;;6251764;22;20282;-89
2022/07/21 06:40:24;;;;;;;;;;;27.30;67.80;;;;;;6250364;22;20332;-88
2022/07/21 06:42:49;;;;;;;;;;;27.30;67.50;;;;;;6279107;22;19956;-90
2022/07/21 06:45:15;;;;;;;;;;;27.30;67.20;;;;;;6251468;22;19930;-90
2022/07/21 06:47:40;;;;;;;;;;;27.30;66.90;;;;;;6250232;22;19961;-90
2022/07/21 06:50:06;;;;;;;;;;;27.30;66.80;;;;;;6248549;22;20309;-91
2022/07/21 06:52:36;;;;;;;;;;;27.20;66.70;;;;;;6251659;22;19994;-90
2022/07/21 06:55:05;;;;;;;;;;;27.20;66.80;;;;;;6251476;22;19907;-91
2022/07/21 06:57:31;;;;;;;;;;;27.20;66.40;;;;;;6251726;22;20275;-91
2022/07/21 06:59:56;;;;;;;;;;;27.10;66.60;;;;;;6250016;22;19908;-89
2022/07/21 07:02:22;;;;;;;;;;;27.10;66.80;;;;;;6251307;22;19966;-89
2022/07/21 07:04:48;;;;;;;;;;;27.20;66.90;;;;;;6251483;22;20399;-90
2022/07/21 07:07:13;;;;;;;;;;;27.30;67.20;;;;;;6252923;22;19912;-90
2022/07/21 07:09:44;;;;;;;;;;;27.50;67.10;;;;;;6250999;22;19907;-90
2022/07/21 07:12:09;;;;;;;;;;;27.50;67.10;;;;;;6256609;22;19915;-91
2022/07/21 07:14:35;;;;;;;;;;;27.70;67.30;;;;;;6257125;22;19907;-90
2022/07/21 07:17:02;;;;;;;;;;;27.80;67.30;;;;;;6255735;22;19911;-91
2022/07/21 07:19:28;;;;;;;;;;;27.90;67.20;;;;;;6282905;22;19977;-91
2022/07/21 07:21:53;;;;;;;;;;;28.00;67.50;;;;;;6283222;22;20016;-91
2022/07/21 07:24:19;;;;;;;;;;;28.20;67.70;;;;;;6255322;22;19926;-91
2022/07/21 07:26:45;;;;;;;;;;;28.30;67.60;;;;;;6283559;22;19918;-91
2022/07/21 07:29:10;;;;;;;;;;;28.30;67.20;;;;;;6256360;22;19910;-91
2022/07/21 07:31:39;;;;;;;;;;;28.40;66.90;;;;;;6235234;22;19912;-92
2022/07/21 07:34:05;;;;;;;;;;;28.30;66.70;;;;;;6230387;22;20232;-91
2022/07/21 07:36:31;;;;;;;;;;;28.30;66.40;;;;;;6255555;22;19918;-91
2022/07/21 07:38:57;;;;;;;;;;;28.30;66.40;;;;;;6282438;22;19952;-91
2022/07/21 07:41:24;;;;;;;;;;;28.30;66.40;;;;;;6257112;22;19942;-92
2022/07/21 07:43:51;;;;;;;;;;;28.30;66.70;;;;;;6254197;22;19961;-92
2022/07/21 07:46:17;;;;;;;;;;;28.30;66.90;;;;;;6255519;22;20216;-91
2022/07/21 07:48:43;;;;;;;;;;;28.40;66.90;;;;;;6281721;22;19903;-92
2022/07/21 07:51:09;;;;;;;;;;;28.40;66.70;;;;;;6256070;22;19978;-92
2022/07/21 07:53:35;;;;;;;;;;;28.60;67.00;;;;;;6283325;22;19914;-91
2022/07/21 07:56:01;;;;;;;;;;;28.70;67.10;;;;;;6254917;22;19915;-92
2022/07/21 07:58:26;;;;;;;;;;;29.00;67.80;;;;;;6255703;22;19922;-92
2022/07/21 08:00:55;;;;;;;;;;;29.30;68.10;;;;;;6254879;22;19922;-93
2022/07/21 08:03:24;;;;;;;;;;;29.70;67.80;;;;;;6231810;22;20331;-93
2022/07/21 08:05:50;;;;;;;;;;;29.80;66.70;;;;;;6256328;22;19985;-93
2022/07/21 08:08:16;;;;;;;;;;;29.90;66.60;;;;;;6254825;22;20327;-92
2022/07/21 08:10:41;;;;;;;;;;;30.00;66.60;;;;;;6282411;22;19954;-91
2022/07/21 08:13:08;;;;;;;;;;;30.10;66.20;;;;;;6280181;22;19916;-92
2022/07/21 08:15:51;;;;;;;;;;;30.30;66.30;;;;;;6254614;22;19934;-92
2022/07/21 08:18:36;;;;;;;;;;;;;;;;;;;;;
2022/07/21 08:21:02;;;;;;;;;;;30.50;66.40;;;;;;6279575;22;19974;-92
2022/07/21 08:23:33;;;;;;;;;;;30.30;64.90;;;;;;6253155;22;19919;-93
2022/07/21 08:26:02;;;;;;;;;;;30.20;65.60;;;;;;6254111;22;19976;-92
2022/07/21 08:28:33;;;;;;;;;;;30.10;66.10;;;;;;6253813;22;19920;-93
2022/07/21 08:30:58;;;;;;;;;;;30.10;66.30;;;;;;6281388;22;19914;-93
2022/07/21 08:33:24;;;;;;;;;;;30.30;66.30;;;;;;6254683;22;19907;-94
2022/07/21 08:35:49;;;;;;;;;;;30.50;65.50;;;;;;6256031;22;20228;-94
2022/07/21 08:38:19;;;;;;;;;;;30.70;65.50;;;;;;6255811;22;19997;-94
2022/07/21 08:40:45;;;;;;;;;;;30.80;64.70;;;;;;6254286;22;19914;-94
2022/07/21 08:43:12;;;;;;;;;;;31.10;66.70;;;;;;6256975;22;19915;-94
2022/07/21 08:45:48;;;;;;;;;;;31.60;65.00;;;;;;6284154;22;19907;-94
2022/07/21 08:48:18;;;;;;;;;;;32.00;65.60;;;;;;6254716;22;19911;-95
2022/07/21 08:50:44;;;;;;;;;;;32.40;65.00;;;;;;6281279;22;19907;-93
2022/07/21 08:53:10;;;;;;;;;;;33.00;64.60;;;;;;6255221;22;20201;-93
2022/07/21 08:55:36;;;;;;;;;;;33.60;65.40;;;;;;6254902;22;20303;-93
2022/07/21 08:58:03;;;;;;;;;;;34.10;66.20;;;;;;6282754;22;19915;-93
2022/07/21 09:00:29;;;;;;;;;;;34.70;63.70;;;;;;6255860;22;19907;-93
2022/07/21 09:03:14;;;;;;;;;;;35.00;62.40;;;;;;6255377;22;20650;-94
2022/07/21 09:05:41;;;;;;;;;;;35.70;64.70;;;;;;6255794;22;19946;-94
2022/07/21 09:08:06;;;;;;;;;;;36.40;63.20;;;;;;6285079;22;19934;-94
2022/07/21 09:10:33;;;;;;;;;;;36.50;57.50;;;;;;6254465;22;19895;-91
2022/07/21 09:12:59;;;;;;;;;;;36.40;56.60;;;;;;6253840;22;19918;-92
2022/07/21 09:15:26;;;;;;;;;;;36.30;54.50;;;;;;6252658;22;19982;-91
2022/07/21 09:18:07;;;;;;;;;;;36.10;56.40;;;;;;6254221;22;19915;-91
2022/07/21 09:20:34;;;;;;;;;;;36.00;56.80;;;;;;6284835;22;19903;-95
2022/07/21 09:23:04;;;;;;;;;;;35.90;57.80;;;;;;6258385;22;19911;-93
2022/07/21 09:25:49;;;;;;;;;;;35.80;57.60;;;;;;6256338;22;19911;-93
2022/07/21 09:28:25;;;;;;;;;;;35.70;54.40;;;;;;6255532;22;19907;-93
2022/07/21 09:30:50;;;;;;;;;;;35.70;54.80;;;;;;6228992;22;20001;-91
2022/07/21 09:33:23;;;;;;;;;;;36.10;56.10;;;;;;6258714;22;19904;-96
2022/07/21 09:35:56;;;;;;;;;;;36.50;52.70;;;;;;6260531;22;19989;-94
2022/07/21 09:38:22;;;;;;;;;;;36.40;49.00;;;;;;6259460;22;19907;-93
2022/07/21 09:40:48;;;;;;;;;;;36.10;47.00;;;;;;6283020;22;20352;-93
2022/07/21 09:43:34;;;;;;;;;;;36.40;51.50;;;;;;6257581;22;19912;-93
2022/07/21 09:46:01;;;;;;;;;;;37.00;51.80;;;;;;6284857;22;19908;-93
2022/07/21 09:48:34;;;;;;;;;;;37.50;52.10;;;;;;6261824;22;19908;-94
2022/07/21 09:51:22;;;;;;;;;;;37.80;51.70;;;;;;6270622;22;19948;-92
2022/07/21 09:53:53;;;;;;;;;;;38.10;48.00;;;;;;6290657;22;19965;-91
2022/07/21 09:56:19;;;;;;;;;;;38.50;46.10;;;;;;6256795;22;19927;-93
2022/07/21 09:58:50;;;;;;;;;;;39.10;44.60;;;;;;6256463;22;19957;-93
2022/07/21 10:01:16;;;;;;;;;;;39.10;42.30;;;;;;6261093;22;19907;-93
2022/07/21 10:03:48;;;;;;;;;;;38.90;42.20;;;;;;6255515;22;20339;-93
2022/07/21 10:06:15;;;;;;;;;;;38.70;43.40;;;;;;6256570;22;19942;-93
2022/07/21 10:08:40;;;;;;;;;;;38.30;42.10;;;;;;6284461;22;19912;-94
2022/07/21 10:11:06;;;;;;;;;;;37.90;43.10;;;;;;6281348;22;19911;-94
2022/07/21 10:13:32;;;;;;;;;;;37.50;43.80;;;;;;6283297;22;19912;-91
2022/07/21 10:15:58;;;;;;;;;;;37.20;43.70;;;;;;6257539;22;19903;-94
2022/07/21 10:18:25;;;;;;;;;;;37.10;44.60;;;;;;6256719;22;19934;-92
2022/07/21 10:20:55;;;;;;;;;;;37.20;45.80;;;;;;6264987;22;19927;-92
2022/07/21 10:23:41;;;;;;;;;;;37.30;45.20;;;;;;6286319;22;19912;-92
2022/07/21 10:26:07;;;;;;;;;;;37.20;41.60;;;;;;6232878;22;19919;-92
2022/07/21 10:28:43;;;;;;;;;;;36.80;40.80;;;;;;6262091;22;19903;-92
2022/07/21 10:31:14;;;;;;;;;;;36.50;40.60;;;;;;6284712;22;19911;-93
2022/07/21 10:33:43;;;;;;;;;;;35.90;43.80;;;;;;6261880;22;19927;-94
2022/07/21 10:36:14;;;;;;;;;;;35.40;49.40;;;;;;6290696;22;19891;-93
2022/07/21 10:38:39;;;;;;;;;;;34.70;50.50;;;;;;6290385;22;19920;-94
2022/07/21 10:41:05;;;;;;;;;;;33.90;50.40;;;;;;6260748;22;20002;-94
2022/07/21 10:43:33;;;;;;;;;;;33.50;50.80;;;;;;6265065;22;19922;-94
2022/07/21 10:45:59;;;;;;;;;;;33.50;52.30;;;;;;6290716;22;19903;-93
2022/07/21 10:48:37;;;;;;;;;;;33.50;53.40;;;;;;6260589;22;19927;-93
2022/07/21 10:51:03;;;;;;;;;;;33.60;51.80;;;;;;6259441;22;19903;-94
2022/07/21 10:53:29;;;;;;;;;;;33.80;53.60;;;;;;6260147;22;19911;-94
2022/07/21 10:55:55;;;;;;;;;;;34.60;52.70;;;;;;6259227;22;19907;-93
2022/07/21 10:58:23;;;;;;;;;;;35.20;53.80;;;;;;6258326;22;19942;-95
2022/07/21 11:00:56;;;;;;;;;;;35.80;53.80;;;;;;6270226;22;19912;-93
2022/07/21 11:03:29;;;;;;;;;;;36.20;53.40;;;;;;6290850;22;19966;-93
2022/07/21 11:06:15;;;;;;;;;;;36.50;50.60;;;;;;6261298;22;19929;-92
2022/07/21 11:08:48;;;;;;;;;;;36.70;46.90;;;;;;6288686;22;19923;-93
2022/07/21 11:11:19;;;;;;;;;;;36.80;48.00;;;;;;6258269;22;19951;-93
2022/07/21 11:14:04;;;;;;;;;;;37.00;46.30;;;;;;6285782;22;19950;-93
2022/07/21 11:16:55;;;;;;;;;;;36.70;43.40;;;;;;6261172;22;19911;-93
2022/07/21 11:19:37;;;;;;;;;;;36.50;45.60;;;;;;6285661;22;19907;-93
2022/07/21 11:22:23;;;;;;;;;;;36.30;43.80;;;;;;6264151;22;19903;-93
2022/07/21 11:24:52;;;;;;;;;;;35.60;47.10;;;;;;6260128;22;19904;-93
2022/07/21 11:27:19;;;;;;;;;;;34.30;50.40;;;;;;6258166;22;19919;-93
2022/07/21 11:29:45;;;;;;;;;;;33.40;53.10;;;;;;6256614;22;19907;-92
2022/07/21 11:32:11;;;;;;;;;;;33.00;55.70;;;;;;6284075;22;19911;-92
2022/07/21 11:34:37;;;;;;;;;;;32.70;57.20;;;;;;6260990;22;19914;-92
2022/07/21 11:37:03;;;;;;;;;;;32.50;58.30;;;;;;6258064;22;20327;-92
2022/07/21 11:42:09;;;;;;;;;;;32.00;59.30;;;;;;6223783;23;19999;-88
2022/07/21 11:44:34;;;;;;;;;;;30.80;56.40;;;;;;6194609;23;20300;-88
2022/07/21 11:47:01;;;;;;;;;;;29.80;59.00;;;;;;6198724;23;19908;-89
2022/07/21 11:49:27;;;;;;;;;;;29.40;61.40;;;;;;6222038;23;19922;-91
2022/07/21 11:51:57;;;;;;;;;;;29.30;62.00;;;;;;6225055;23;19908;-88
2022/07/21 11:54:24;;;;;;;;;;;29.20;63.90;;;;;;6224350;23;19914;-89
2022/07/21 11:56:51;;;;;;;;;;;29.20;64.30;;;;;;6196807;23;19904;-90
2022/07/21 11:59:16;;;;;;;;;;;29.20;64.90;;;;;;6197479;23;19903;-89
2022/07/21 12:01:49;;;;;;;;;;;29.40;65.70;;;;;;6196275;23;19916;-91
2022/07/21 12:04:25;;;;;;;;;;;29.50;65.80;;;;;;6223592;23;20245;-90
2022/07/21 12:06:51;;;;;;;;;;;29.60;65.90;;;;;;6196223;23;20294;-90
2022/07/21 12:09:16;;;;;;;;;;;29.70;66.30;;;;;;6224946;23;19908;-91
2022/07/21 12:11:42;;;;;;;;;;;29.70;65.70;;;;;;6228848;23;19912;-91
2022/07/21 12:14:08;;;;;;;;;;;29.60;64.70;;;;;;6198315;23;19903;-91
2022/07/21 12:16:46;;;;;;;;;;;29.30;64.40;;;;;;6223716;23;19999;-91
2022/07/21 12:19:14;;;;;;;;;;;29.10;64.40;;;;;;6198698;23;19932;-91
2022/07/21 12:21:47;;;;;;;;;;;29.00;64.50;;;;;;6200315;23;19919;-91
2022/07/21 12:24:16;;;;;;;;;;;29.30;66.00;;;;;;6198107;23;19991;-91
2022/07/21 12:26:41;;;;;;;;;;;29.60;66.10;;;;;;6197735;23;19912;-91
2022/07/21 12:29:07;;;;;;;;;;;29.90;66.30;;;;;;6195499;23;19927;-91
2022/07/21 12:31:34;;;;;;;;;;;30.20;66.00;;;;;;6224562;23;20279;-91
2022/07/21 12:34:10;;;;;;;;;;;30.30;66.00;;;;;;6223657;23;19936;-91
2022/07/21 12:36:36;;;;;;;;;;;30.40;65.90;;;;;;6199206;23;19912;-91
2022/07/21 12:39:12;;;;;;;;;;;30.50;66.30;;;;;;6195955;23;19904;-91
2022/07/21 12:41:45;;;;;;;;;;;31.50;66.90;;;;;;6197429;23;20217;-91
2022/07/21 12:44:23;;;;;;;;;;;32.70;65.50;;;;;;6191395;23;19912;-91
2022/07/21 12:46:55;;;;;;;;;;;33.40;62.50;;;;;;6191515;23;20031;-91
2022/07/21 12:49:21;;;;;;;;;;;33.80;61.50;;;;;;6193711;23;20223;-90
2022/07/21 12:51:58;;;;;;;;;;;33.70;61.00;;;;;;6192328;23;19947;-91
2022/07/21 12:54:24;;;;;;;;;;;33.30;60.20;;;;;;6193484;23;19904;-90
2022/07/21 12:56:49;;;;;;;;;;;32.60;60.60;;;;;;6198224;23;19904;-90
2022/07/21 12:59:15;;;;;;;;;;;31.80;61.10;;;;;;6220647;23;19904;-90
2022/07/21 13:01:40;;;;;;;;;;;31.10;61.70;;;;;;6220777;23;19965;-89
2022/07/21 13:04:06;;;;;;;;;;;30.10;61.30;;;;;;6221079;23;19978;-88
2022/07/21 13:06:32;;;;;;;;;;;29.30;61.60;;;;;;6194280;23;19936;-90
2022/07/21 13:08:57;;;;;;;;;;;28.80;62.00;;;;;;6220317;23;19912;-89
2022/07/21 13:11:23;;;;;;;;;;;28.50;63.50;;;;;;6224114;23;19912;-91
2022/07/21 13:13:49;;;;;;;;;;;28.70;65.20;;;;;;6225132;23;19904;-90
2022/07/21 13:16:15;;;;;;;;;;;29.20;66.60;;;;;;6196921;23;20237;-91
2022/07/21 13:18:41;;;;;;;;;;;30.30;66.70;;;;;;6223718;23;19950;-90
2022/07/21 13:21:06;;;;;;;;;;;31.40;65.90;;;;;;6196416;23;19915;-90
2022/07/21 13:23:32;;;;;;;;;;;32.60;64.70;;;;;;6197633;23;19919;-91
2022/07/21 13:25:58;;;;;;;;;;;32.90;63.20;;;;;;6197798;23;19912;-91
2022/07/21 13:28:23;;;;;;;;;;;32.70;62.60;;;;;;6226602;23;19919;-91
2022/07/21 13:30:49;;;;;;;;;;;32.40;63.00;;;;;;6226073;23;19957;-90
2022/07/21 13:33:14;;;;;;;;;;;32.10;63.00;;;;;;6199343;23;19911;-90
2022/07/21 13:35:40;;;;;;;;;;;31.80;63.60;;;;;;6222983;23;19934;-91
2022/07/21 13:38:06;;;;;;;;;;;31.40;63.20;;;;;;6223129;23;20235;-91
2022/07/21 13:40:31;;;;;;;;;;;31.00;63.50;;;;;;6225336;23;19992;-90
2022/07/21 13:42:57;;;;;;;;;;;30.70;64.40;;;;;;6196474;23;19916;-91
2022/07/21 13:45:22;;;;;;;;;;;30.40;64.70;;;;;;6195110;23;19976;-91
2022/07/21 13:47:48;;;;;;;;;;;30.20;65.00;;;;;;6195434;23;19904;-90
2022/07/21 13:50:13;;;;;;;;;;;29.90;65.10;;;;;;6195531;23;19951;-91
2022/07/21 13:52:40;;;;;;;;;;;29.70;64.50;;;;;;6223089;23;19911;-90
2022/07/21 13:55:07;;;;;;;;;;;29.10;63.10;;;;;;6222235;23;19958;-91
2022/07/21 13:57:32;;;;;;;;;;;28.50;63.60;;;;;;6221189;23;19904;-91
2022/07/21 13:59:58;;;;;;;;;;;28.10;64.70;;;;;;6196599;23;19918;-90
2022/07/21 14:02:23;;;;;;;;;;;27.90;66.00;;;;;;6195946;23;19912;-90
2022/07/21 14:04:49;;;;;;;;;;;27.80;66.60;;;;;;6223178;23;19922;-90
2022/07/21 14:07:14;;;;;;;;;;;27.80;66.90;;;;;;6224064;23;19911;-91
2022/07/21 14:09:41;;;;;;;;;;;27.90;67.60;;;;;;6195651;23;19934;-90
2022/07/21 14:12:07;;;;;;;;;;;28.00;67.60;;;;;;6224576;23;20312;-90
2022/07/21 14:14:32;;;;;;;;;;;28.20;67.70;;;;;;6222199;23;19911;-91
2022/07/21 14:16:58;;;;;;;;;;;28.30;67.80;;;;;;6196735;23;19904;-90
2022/07/21 14:19:23;;;;;;;;;;;28.60;68.10;;;;;;6224687;23;19904;-90
2022/07/21 14:21:49;;;;;;;;;;;28.80;68.10;;;;;;6202380;23;19914;-90
2022/07/21 14:26:59;;;;;;;;;;;29.40;67.80;;;;;;6225697;23;19934;-91